Terminal Aerodrome Forecast
Issued by NWS

Home | Current Version | Previous Version | Text Only | Print | Product List | Glossary On
Versions: 1 2 3 4 5 6 7 8 9 10 11 12 13 14 15 16 17 18 19 20
000
FTUS45 KRIW 310500
TAFPNA
TAF
KPNA 310534Z 3106/0106 29006KT P6SM SCT120
     FM311000 29005KT P6SM SCT250
     FM311800 30006KT P6SM SCT100
     FM010200 29007KT P6SM SCT250
      AMD LTD TO CLD VIS AND WIND=

USA.gov is the U.S. government's official web portal to all federal, state and local government web resources and services.